Time;durP1;ratioP1;P1;durP2;ratioP2;P2;SDS_P1;SDS_P2;PMS_P1;PMS_P2;Temp;Humidity;BMP_temperature;BMP_pressure;BME280_temperature;BME280_humidity;BME280_pressure;Samples;Min_cycle;Max_cycle;Signal;HPM_P1;HPM_P2
2023/02/19 00:00:24;;;;;;;7.00;1.60;;;;;;;;;;6233459;23;20028;-53
2023/02/19 00:02:51;;;;;;;9.75;1.30;;;;;;;;;;6233495;23;20020;-55
2023/02/19 00:05:25;;;;;;;4.70;1.17;;;;;;;;;;6233400;23;20130;-56
2023/02/19 00:07:52;;;;;;;4.35;1.08;;;;;;;;;;6231857;23;20016;-62
2023/02/19 00:10:26;;;;;;;5.28;1.20;;;;;;;;;;6236477;23;20099;-62
2023/02/19 00:12:54;;;;;;;11.90;1.60;;;;;;;;;;6232544;23;20020;-62
2023/02/19 00:15:29;;;;;;;2.25;0.85;;;;;;;;;;6235674;23;20102;-62
2023/02/19 00:17:56;;;;;;;3.30;1.02;;;;;;;;;;6233455;23;20430;-62
2023/02/19 00:20:30;;;;;;;3.38;1.10;;;;;;;;;;6234460;23;20026;-61
2023/02/19 00:22:57;;;;;;;4.88;1.30;;;;;;;;;;6236478;23;20044;-61
2023/02/19 00:25:31;;;;;;;3.95;1.52;;;;;;;;;;6232876;23;20024;-61
2023/02/19 00:28:12;;;;;;;3.28;1.05;;;;;;;;;;6230792;23;20028;-60
2023/02/19 00:30:46;;;;;;;3.40;0.90;;;;;;;;;;6232376;23;20466;-62
2023/02/19 00:33:13;;;;;;;;;;;;;;;;;;6233546;23;20032;-62
2023/02/19 00:35:41;;;;;;;2.17;1.23;;;;;;;;;;6230833;23;20018;-64
2023/02/19 00:38:14;;;;;;;2.15;0.95;;;;;;;;;;6232912;23;20909;-64
2023/02/19 00:40:41;;;;;;;3.05;1.38;;;;;;;;;;6235309;23;20376;-65
2023/02/19 00:43:15;;;;;;;7.30;1.70;;;;;;;;;;6234407;23;20017;-64
2023/02/19 00:45:42;;;;;;;3.97;1.38;;;;;;;;;;6233809;23;20050;-65
2023/02/19 00:48:09;;;;;;;6.85;1.35;;;;;;;;;;6231934;23;20059;-64
2023/02/19 00:50:43;;;;;;;6.30;1.30;;;;;;;;;;6230860;23;20024;-65
2023/02/19 00:53:10;;;;;;;;;;;;;;;;;;6235093;23;20052;-65
2023/02/19 00:55:37;;;;;;;3.10;1.02;;;;;;;;;;6232894;23;19920;-65
2023/02/19 00:58:11;;;;;;;3.00;1.15;;;;;;;;;;6232645;23;20042;-64
2023/02/19 01:00:38;;;;;;;2.30;1.23;;;;;;;;;;6234349;23;20028;-51
2023/02/19 01:03:12;;;;;;;5.13;1.35;;;;;;;;;;6234351;23;20020;-56
2023/02/19 01:05:39;;;;;;;3.65;0.80;;;;;;;;;;6232277;23;20126;-56
2023/02/19 01:08:07;;;;;;;7.93;1.23;;;;;;;;;;6233190;23;20099;-55
2023/02/19 01:10:41;;;;;;;9.90;1.50;;;;;;;;;;6235098;23;20062;-55
2023/02/19 01:13:08;;;;;;;8.88;1.95;;;;;;;;;;6231837;23;20020;-56
2023/02/19 01:15:36;;;;;;;8.93;1.30;;;;;;;;;;6233563;23;20071;-54
2023/02/19 01:18:09;;;;;;;6.82;1.20;;;;;;;;;;6235408;23;20062;-55
2023/02/19 01:20:43;;;;;;;3.83;1.15;;;;;;;;;;6233650;23;20601;-55
2023/02/19 01:23:17;;;;;;;2.90;0.90;;;;;;;;;;6236485;23;20091;-55
2023/02/19 01:25:44;;;;;;;7.50;0.98;;;;;;;;;;6236765;23;20368;-57
2023/02/19 01:28:31;;;;;;;11.27;1.50;;;;;;;;;;6231141;23;20024;-57
2023/02/19 01:31:06;;;;;;;4.00;1.15;;;;;;;;;;6235397;23;20032;-56
2023/02/19 01:33:44;;;;;;;7.40;1.10;;;;;;;;;;6236465;23;20023;-62
2023/02/19 01:36:12;;;;;;;2.90;1.20;;;;;;;;;;6235186;23;20107;-62
2023/02/19 01:38:39;;;;;;;;;;;;;;;;;;6234866;23;20031;-61
2023/02/19 01:41:16;;;;;;;5.32;1.17;;;;;;;;;;6235706;23;19916;-62
2023/02/19 01:43:56;;;;;;;12.85;1.58;;;;;;;;;;6236334;23;20066;-62
2023/02/19 01:46:34;;;;;;;4.35;1.10;;;;;;;;;;6234767;23;20020;-62
2023/02/19 01:49:21;;;;;;;6.28;1.10;;;;;;;;;;6234472;23;20411;-61
2023/02/19 01:52:03;;;;;;;2.92;1.10;;;;;;;;;;6233145;23;20064;-61
2023/02/19 01:54:32;;;;;;;2.50;0.95;;;;;;;;;;6234380;23;20020;-60
2023/02/19 01:57:07;;;;;;;3.63;1.17;;;;;;;;;;6233062;23;20507;-72
2023/02/19 01:59:34;;;;;;;6.10;1.40;;;;;;;;;;6234803;23;20070;-64
2023/02/19 02:02:02;;;;;;;3.88;1.00;;;;;;;;;;6234540;23;20062;-61
2023/02/19 02:04:35;;;;;;;5.90;1.00;;;;;;;;;;6235292;23;20028;-62
2023/02/19 02:10:18;;;;;;;2.50;1.20;;;;;;;;;;6234803;23;20027;-62
2023/02/19 02:12:43;;;;;;;8.63;1.15;;;;;;;;;;6234631;23;20071;-61
2023/02/19 02:15:17;;;;;;;2.05;1.02;;;;;;;;;;6235810;23;20569;-52
2023/02/19 02:17:52;;;;;;;3.45;1.10;;;;;;;;;;6233776;23;20095;-55
2023/02/19 02:20:36;;;;;;;2.28;1.00;;;;;;;;;;6235495;23;20024;-54
2023/02/19 02:23:10;;;;;;;3.78;0.90;;;;;;;;;;6234495;23;20114;-55
2023/02/19 02:26:06;;;;;;;7.78;2.22;;;;;;;;;;6232368;23;20031;-62
2023/02/19 02:28:33;;;;;;;3.83;1.00;;;;;;;;;;6233376;23;20067;-58
2023/02/19 02:31:18;;;;;;;5.25;0.95;;;;;;;;;;6235786;23;20112;-57
2023/02/19 02:33:49;;;;;;;3.42;1.17;;;;;;;;;;6235805;23;20016;-57
2023/02/19 02:36:27;;;;;;;5.27;0.90;;;;;;;;;;6235188;23;20095;-54
2023/02/19 02:38:55;;;;;;;6.85;1.48;;;;;;;;;;6234519;23;20487;-55
2023/02/19 02:41:29;;;;;;;5.00;1.27;;;;;;;;;;6235630;23;20082;-55
2023/02/19 02:43:56;;;;;;;7.68;1.02;;;;;;;;;;6235591;23;20058;-73
2023/02/19 02:46:34;;;;;;;3.55;1.15;;;;;;;;;;6231425;23;20108;-74
2023/02/19 02:49:04;;;;;;;3.25;1.00;;;;;;;;;;6234834;23;20368;-74
2023/02/19 02:51:40;;;;;;;2.15;1.08;;;;;;;;;;6235111;23;20020;-73
2023/02/19 02:57:03;;;;;;;6.85;0.80;;;;;;;;;;6234102;23;20023;-57
2023/02/19 02:59:32;;;;;;;1.67;0.82;;;;;;;;;;6232981;23;20134;-55
2023/02/19 03:02:14;;;;;;;2.53;1.23;;;;;;;;;;6236893;23;20211;-55
2023/02/19 03:07:56;;;;;;;5.05;0.95;;;;;;;;;;6235833;23;20095;-56
2023/02/19 03:10:26;;;;;;;2.90;1.60;;;;;;;;;;6235425;23;20031;-57
2023/02/19 03:21:32;;;;;;;2.23;0.70;;;;;;;;;;6234001;23;20137;-52
2023/02/19 03:27:02;;;;;;;3.17;0.95;;;;;;;;;;6234312;23;20070;-62
2023/02/19 03:29:43;;;;;;;3.95;1.30;;;;;;;;;;6233095;23;20881;-62
2023/02/19 03:32:14;;;;;;;13.25;1.20;;;;;;;;;;6232319;23;20112;-62
2023/02/19 03:34:52;;;;;;;5.43;1.15;;;;;;;;;;6233197;23;20070;-61
2023/02/19 03:37:26;;;;;;;4.18;1.30;;;;;;;;;;6234619;23;20073;-62
2023/02/19 03:40:00;;;;;;;2.20;0.85;;;;;;;;;;6234363;23;20020;-62
2023/02/19 03:42:35;;;;;;;4.47;0.95;;;;;;;;;;6235113;23;20059;-73
2023/02/19 03:45:18;;;;;;;4.22;0.98;;;;;;;;;;6232298;23;20020;-73
2023/02/19 03:47:49;;;;;;;4.63;0.93;;;;;;;;;;6232941;23;20039;-73
2023/02/19 03:50:30;;;;;;;2.17;0.90;;;;;;;;;;6236046;23;20024;-73
2023/02/19 03:53:06;;;;;;;3.53;0.90;;;;;;;;;;6233142;23;20020;-47
2023/02/19 03:55:49;;;;;;;1.65;0.90;;;;;;;;;;6231052;23;20103;-64
2023/02/19 03:58:22;;;;;;;2.00;0.90;;;;;;;;;;6232800;23;20107;-64
2023/02/19 04:01:05;;;;;;;4.95;1.08;;;;;;;;;;6234810;23;20106;-64
2023/02/19 04:03:44;;;;;;;8.00;1.20;;;;;;;;;;6230007;23;20386;-65
2023/02/19 04:06:24;;;;;;;2.83;0.90;;;;;;;;;;6235387;23;20103;-64
2023/02/19 04:08:53;;;;;;;0.93;0.80;;;;;;;;;;6233887;23;20433;-64
2023/02/19 04:11:28;;;;;;;2.38;1.23;;;;;;;;;;6234127;23;20127;-47
2023/02/19 04:14:07;;;;;;;3.92;1.00;;;;;;;;;;6233697;23;20522;-48
2023/02/19 04:16:43;;;;;;;5.05;1.40;;;;;;;;;;6233543;23;20024;-47
2023/02/19 04:19:15;;;;;;;5.72;0.60;;;;;;;;;;6233869;23;20028;-48
2023/02/19 04:21:50;;;;;;;6.85;0.90;;;;;;;;;;6232500;23;20024;-48
2023/02/19 04:24:29;;;;;;;2.47;1.13;;;;;;;;;;6230022;23;20483;-64
2023/02/19 04:26:57;;;;;;;4.35;0.93;;;;;;;;;;6234310;23;20016;-64
2023/02/19 04:29:38;;;;;;;2.42;1.00;;;;;;;;;;6231557;23;20495;-64
2023/02/19 04:32:05;;;;;;;1.48;0.80;;;;;;;;;;6234201;23;20067;-64
2023/02/19 04:34:39;;;;;;;2.15;0.90;;;;;;;;;;6230209;23;20022;-64
2023/02/19 04:37:06;;;;;;;2.08;0.93;;;;;;;;;;6233572;23;20095;-64
2023/02/19 04:39:40;;;;;;;5.45;0.90;;;;;;;;;;6231762;23;20020;-50
2023/02/19 04:42:07;;;;;;;1.98;1.10;;;;;;;;;;6233557;23;20030;-48
2023/02/19 04:44:34;;;;;;;1.40;0.93;;;;;;;;;;6230268;23;20107;-48
2023/02/19 04:47:08;;;;;;;2.05;1.00;;;;;;;;;;6234229;23;20034;-49
2023/02/19 04:49:35;;;;;;;3.10;1.10;;;;;;;;;;6232103;23;20039;-51
2023/02/19 04:52:02;;;;;;;3.72;1.20;;;;;;;;;;6235657;23;20056;-61
2023/02/19 04:54:36;;;;;;;2.47;1.08;;;;;;;;;;6233096;23;20028;-61
2023/02/19 04:57:03;;;;;;;1.63;1.00;;;;;;;;;;6235214;23;20020;-61
2023/02/19 04:59:37;;;;;;;2.38;0.80;;;;;;;;;;6236717;23;20398;-60
2023/02/19 05:02:04;;;;;;;;;;;;;;;;;;6235643;23;20375;-60
2023/02/19 05:04:31;;;;;;;4.13;1.45;;;;;;;;;;6236286;23;19920;-61
2023/02/19 05:07:05;;;;;;;3.13;1.15;;;;;;;;;;6236159;23;20043;-53
2023/02/19 05:09:32;;;;;;;1.70;1.00;;;;;;;;;;6235317;23;20111;-54
2023/02/19 05:11:59;;;;;;;2.00;0.82;;;;;;;;;;6233825;23;20055;-55
2023/02/19 05:14:33;;;;;;;2.75;1.00;;;;;;;;;;6235122;23;20020;-54
2023/02/19 05:17:00;;;;;;;2.35;0.80;;;;;;;;;;6231525;23;20016;-56
2023/02/19 05:19:34;;;;;;;2.92;0.85;;;;;;;;;;6235227;23;20046;-61
2023/02/19 05:22:01;;;;;;;;;;;;;;;;;;6237077;23;20118;-62
2023/02/19 05:24:35;;;;;;;2.13;0.68;;;;;;;;;;6229638;23;19951;-61
2023/02/19 05:27:09;;;;;;;4.75;0.93;;;;;;;;;;6234246;23;20030;-61
2023/02/19 05:29:43;;;;;;;3.97;0.90;;;;;;;;;;6234689;23;20028;-61
2023/02/19 05:32:17;;;;;;;4.05;1.00;;;;;;;;;;6234375;23;20471;-61
2023/02/19 05:34:44;;;;;;;4.18;0.95;;;;;;;;;;6235429;23;20017;-53
2023/02/19 05:37:11;;;;;;;2.83;0.50;;;;;;;;;;6236463;23;20028;-57
2023/02/19 05:39:45;;;;;;;4.03;1.33;;;;;;;;;;6234635;23;20061;-56
2023/02/19 05:42:14;;;;;;;0.95;0.70;;;;;;;;;;6234084;23;20034;-55
2023/02/19 05:44:47;;;;;;;7.40;0.93;;;;;;;;;;6236362;23;20102;-52
2023/02/19 05:47:14;;;;;;;3.50;1.25;;;;;;;;;;6234836;23;20105;-62
2023/02/19 05:49:48;;;;;;;3.45;1.02;;;;;;;;;;6234023;23;20024;-60
2023/02/19 05:52:15;;;;;;;2.45;0.70;;;;;;;;;;6232720;23;20098;-60
2023/02/19 05:54:42;;;;;;;;;;;;;;;;;;6232635;23;20124;-59
2023/02/19 05:57:16;;;;;;;1.60;0.80;;;;;;;;;;6232183;23;19919;-61
2023/02/19 05:59:43;;;;;;;3.35;1.08;;;;;;;;;;6236489;23;20124;-61
2023/02/19 06:02:17;;;;;;;3.45;0.77;;;;;;;;;;6231627;23;20048;-61
2023/02/19 06:04:45;;;;;;;;;;;;;;;;;;6237018;23;20024;-54
2023/02/19 06:07:18;;;;;;;2.45;0.80;;;;;;;;;;6233268;23;20345;-50
2023/02/19 06:09:45;;;;;;;2.47;0.90;;;;;;;;;;6235351;23;20016;-53
2023/02/19 06:12:12;;;;;;;3.63;0.70;;;;;;;;;;6232344;23;20325;-51
2023/02/19 06:14:46;;;;;;;1.58;0.75;;;;;;;;;;6236057;23;20027;-61
2023/02/19 06:17:13;;;;;;;2.90;0.80;;;;;;;;;;6231795;23;20085;-73
2023/02/19 06:19:47;;;;;;;1.20;0.90;;;;;;;;;;6235277;23;20099;-72
2023/02/19 06:22:15;;;;;;;1.08;0.60;;;;;;;;;;6233698;23;20024;-74
2023/02/19 06:24:42;;;;;;;5.20;0.80;;;;;;;;;;6233539;23;20016;-73
2023/02/19 06:27:16;;;;;;;3.40;0.80;;;;;;;;;;6229213;23;20128;-74
2023/02/19 06:29:43;;;;;;;;;;;;;;;;;;6235608;23;20016;-73
2023/02/19 06:32:24;;;;;;;5.43;0.80;;;;;;;;;;6234758;23;19927;-53
2023/02/19 06:34:51;;;;;;;3.05;0.80;;;;;;;;;;6232644;23;20020;-53
2023/02/19 06:37:25;;;;;;;2.05;0.77;;;;;;;;;;6234599;23;20027;-54
2023/02/19 06:39:52;;;;;;;4.28;1.05;;;;;;;;;;6236334;23;20099;-56
2023/02/19 06:42:19;;;;;;;2.75;0.90;;;;;;;;;;6234366;23;20110;-63
2023/02/19 06:44:53;;;;;;;0.95;0.60;;;;;;;;;;6233818;23;20495;-55
2023/02/19 06:47:20;;;;;;;6.55;1.00;;;;;;;;;;6232691;23;20024;-54
2023/02/19 06:49:54;;;;;;;4.18;1.00;;;;;;;;;;6232215;23;20020;-53
2023/02/19 06:52:21;;;;;;;2.10;1.00;;;;;;;;;;6232603;23;20497;-54
2023/02/19 06:54:48;;;;;;;5.32;1.00;;;;;;;;;;6235118;23;20024;-55
2023/02/19 06:57:22;;;;;;;1.73;0.77;;;;;;;;;;6232039;23;20032;-54
2023/02/19 06:59:49;;;;;;;;;;;;;;;;;;6235353;23;20024;-61
2023/02/19 07:02:23;;;;;;;9.98;2.05;;;;;;;;;;6234523;23;19957;-62
2023/02/19 07:04:50;;;;;;;;;;;;;;;;;;6236234;23;20534;-62
2023/02/19 07:07:17;;;;;;;1.25;0.63;;;;;;;;;;6234058;23;20003;-62
2023/02/19 07:09:51;;;;;;;1.95;0.60;;;;;;;;;;6235738;23;20020;-62
2023/02/19 07:12:18;;;;;;;2.28;0.77;;;;;;;;;;6234881;23;20107;-54
2023/02/19 07:14:45;;;;;;;3.03;0.90;;;;;;;;;;6235903;23;20044;-61
2023/02/19 07:17:19;;;;;;;1.85;0.88;;;;;;;;;;6235691;23;20050;-61
2023/02/19 07:19:46;;;;;;;5.25;1.20;;;;;;;;;;6234976;23;20109;-61
2023/02/19 07:22:20;;;;;;;3.03;1.00;;;;;;;;;;6232182;23;20442;-61
2023/02/19 07:24:47;;;;;;;;;;;;;;;;;;6235432;23;20792;-61
2023/02/19 07:27:14;;;;;;;4.97;1.13;;;;;;;;;;6235058;23;19926;-60
2023/02/19 07:29:55;;;;;;;4.68;1.17;;;;;;;;;;6233666;23;20028;-61
2023/02/19 07:32:29;;;;;;;4.28;1.20;;;;;;;;;;6233609;23;20115;-61
2023/02/19 07:35:02;;;;;;;1.55;1.00;;;;;;;;;;6234825;23;20483;-61
2023/02/19 07:37:29;;;;;;;4.20;1.88;;;;;;;;;;6231129;23;20107;-60
2023/02/19 07:39:56;;;;;;;5.60;1.33;;;;;;;;;;6231238;23;20020;-61
2023/02/19 07:42:44;;;;;;;7.90;1.30;;;;;;;;;;6233225;23;20024;-71
2023/02/19 07:45:18;;;;;;;2.78;1.20;;;;;;;;;;6232177;23;20135;-71
2023/02/19 07:47:45;;;;;;;5.07;1.65;;;;;;;;;;6234012;23;20111;-71
2023/02/19 07:50:12;;;;;;;5.68;1.95;;;;;;;;;;6231631;23;20027;-71
2023/02/19 07:52:46;;;;;;;9.07;2.75;;;;;;;;;;6231455;23;20028;-72
2023/02/19 07:55:13;;;;;;;8.00;2.75;;;;;;;;;;6232083;23;20083;-72
2023/02/19 07:57:47;;;;;;;6.60;2.60;;;;;;;;;;6234857;23;20111;-48
2023/02/19 08:00:15;;;;;;;4.88;1.92;;;;;;;;;;6234692;23;20058;-49
2023/02/19 08:03:00;;;;;;;;;;;;;;;;;;6235969;23;20020;-50
2023/02/19 08:05:37;;;;;;;2.70;0.93;;;;;;;;;;6224445;23;19920;-49
2023/02/19 08:08:08;;;;;;;4.63;1.15;;;;;;;;;;6233256;23;20059;-51
2023/02/19 08:13:30;;;;;;;5.97;1.10;;;;;;;;;;6186484;23;20050;-74
2023/02/19 08:16:04;;;;;;;3.28;0.85;;;;;;;;;;6235659;23;20302;-75
2023/02/19 08:18:45;;;;;;;6.45;0.73;;;;;;;;;;6234794;23;20034;-74
2023/02/19 08:21:19;;;;;;;2.20;0.93;;;;;;;;;;6235439;23;20119;-74
2023/02/19 08:23:46;;;;;;;0.70;0.63;;;;;;;;;;6234529;23;20028;-74
2023/02/19 08:26:17;;;;;;;5.43;0.80;;;;;;;;;;6234506;23;20024;-74
2023/02/19 08:29:03;;;;;;;2.20;0.63;;;;;;;;;;6232909;23;20139;-75
2023/02/19 08:31:37;;;;;;;1.27;0.52;;;;;;;;;;6235203;23;20807;-74
2023/02/19 08:34:11;;;;;;;2.15;0.70;;;;;;;;;;6232426;23;20024;-72
2023/02/19 08:36:38;;;;;;;6.97;0.90;;;;;;;;;;6233756;23;20437;-60
2023/02/19 08:39:06;;;;;;;2.42;1.00;;;;;;;;;;6234676;23;20032;-62
2023/02/19 08:41:39;;;;;;;2.40;0.80;;;;;;;;;;6233325;23;20387;-62
2023/02/19 08:44:07;;;;;;;2.83;0.75;;;;;;;;;;6231669;23;20128;-62
2023/02/19 08:46:40;;;;;;;4.78;0.88;;;;;;;;;;6231729;23;20115;-63
2023/02/19 08:49:07;;;;;;;5.53;0.80;;;;;;;;;;6231535;23;20546;-62
2023/02/19 08:51:35;;;;;;;;;;;;;;;;;;6233985;23;20024;-62
2023/02/19 08:54:08;;;;;;;4.22;1.00;;;;;;;;;;6234335;23;20065;-71
2023/02/19 08:56:35;;;;;;;6.97;1.52;;;;;;;;;;6232076;23;20103;-73
2023/02/19 08:59:02;;;;;;;3.92;1.00;;;;;;;;;;6233947;23;20030;-73
2023/02/19 09:01:36;;;;;;;11.80;1.20;;;;;;;;;;6233631;23;20039;-72
2023/02/19 09:04:03;;;;;;;5.50;1.88;;;;;;;;;;6233137;23;20024;-48
2023/02/19 09:06:31;;;;;;;6.13;1.00;;;;;;;;;;6232999;23;20070;-61
2023/02/19 09:09:06;;;;;;;2.30;1.25;;;;;;;;;;6233762;23;20027;-74
2023/02/19 09:11:33;;;;;;;6.38;1.70;;;;;;;;;;6232753;23;20024;-75
2023/02/19 09:14:07;;;;;;;8.90;2.35;;;;;;;;;;6233171;23;20016;-74
2023/02/19 09:16:35;;;;;;;8.60;1.67;;;;;;;;;;6234827;23;20111;-74
2023/02/19 09:19:03;;;;;;;7.38;2.28;;;;;;;;;;6234054;23;20103;-74
2023/02/19 09:21:37;;;;;;;6.43;1.30;;;;;;;;;;6234358;23;20107;-74
2023/02/19 09:24:04;;;;;;;7.97;1.00;;;;;;;;;;6234325;23;20058;-59
2023/02/19 09:26:32;;;;;;;3.25;1.17;;;;;;;;;;6232734;23;20418;-58
2023/02/19 09:29:12;;;;;;;6.15;0.95;;;;;;;;;;6229186;23;20028;-58
2023/02/19 09:31:39;;;;;;;2.47;0.90;;;;;;;;;;6232970;23;20051;-57
2023/02/19 09:34:13;;;;;;;4.95;1.08;;;;;;;;;;6234001;23;20020;-74
2023/02/19 09:36:40;;;;;;;6.95;1.05;;;;;;;;;;6233789;23;20103;-74
2023/02/19 09:39:11;;;;;;;4.90;1.08;;;;;;;;;;6234964;23;20253;-75
2023/02/19 09:41:49;;;;;;;2.92;1.05;;;;;;;;;;6234307;23;20022;-75
2023/02/19 09:44:23;;;;;;;4.15;1.05;;;;;;;;;;6234086;23;20108;-75
2023/02/19 09:46:58;;;;;;;8.82;1.77;;;;;;;;;;6236381;23;20021;-75
2023/02/19 09:49:50;;;;;;;3.28;0.98;;;;;;;;;;6233464;23;20026;-76
2023/02/19 09:52:23;;;;;;;6.50;1.42;;;;;;;;;;6233776;23;20020;-74
2023/02/19 09:54:59;;;;;;;4.45;1.40;;;;;;;;;;6233584;23;20107;-74
2023/02/19 09:57:29;;;;;;;7.60;2.13;;;;;;;;;;6233876;23;20028;-74
2023/02/19 09:59:59;;;;;;;3.45;1.33;;;;;;;;;;6235978;23;20047;-74
2023/02/19 10:02:36;;;;;;;4.18;1.02;;;;;;;;;;6233554;23;20491;-62
2023/02/19 10:05:10;;;;;;;3.92;1.50;;;;;;;;;;6235821;23;20043;-55
2023/02/19 10:07:48;;;;;;;3.13;0.88;;;;;;;;;;6235358;23;20047;-57
2023/02/19 10:10:15;;;;;;;7.80;1.63;;;;;;;;;;6235922;23;20110;-59
2023/02/19 10:12:55;;;;;;;4.50;1.02;;;;;;;;;;6232880;23;20032;-60
2023/02/19 10:15:29;;;;;;;3.38;1.00;;;;;;;;;;6238180;23;20502;-58
2023/02/19 10:18:04;;;;;;;0.95;0.70;;;;;;;;;;6236636;23;20024;-56
2023/02/19 10:20:31;;;;;;;2.95;0.90;;;;;;;;;;6234212;23;20024;-57
2023/02/19 10:23:07;;;;;;;5.32;1.20;;;;;;;;;;6236690;23;20491;-60
2023/02/19 10:25:34;;;;;;;3.05;0.90;;;;;;;;;;6235531;23;20107;-57
2023/02/19 10:28:03;;;;;;;8.05;1.70;;;;;;;;;;6234092;23;20101;-58
2023/02/19 10:30:43;;;;;;;4.30;1.30;;;;;;;;;;6234768;23;20422;-59
2023/02/19 10:33:17;;;;;;;3.90;1.70;;;;;;;;;;6237295;23;20095;-61
2023/02/19 10:35:54;;;;;;;2.38;1.13;;;;;;;;;;6233660;23;20885;-60
2023/02/19 10:38:47;;;;;;;1.92;0.80;;;;;;;;;;6235433;23;20541;-60
2023/02/19 10:41:23;;;;;;;3.40;1.05;;;;;;;;;;6235826;23;20063;-60
2023/02/19 10:43:55;;;;;;;3.03;0.77;;;;;;;;;;6233403;23;20063;-60
2023/02/19 10:46:31;;;;;;;2.33;0.98;;;;;;;;;;6235131;23;20102;-59
2023/02/19 10:49:00;;;;;;;6.50;1.08;;;;;;;;;;6234249;23;20028;-59
2023/02/19 10:51:35;;;;;;;4.82;1.42;;;;;;;;;;6237400;23;20020;-60
2023/02/19 10:54:21;;;;;;;5.70;0.80;;;;;;;;;;6235800;23;20176;-59
2023/02/19 10:57:15;;;;;;;2.17;1.00;;;;;;;;;;6235709;23;20024;-59
2023/02/19 10:59:52;;;;;;;2.50;1.00;;;;;;;;;;6235721;23;20020;-56
2023/02/19 11:02:27;;;;;;;3.17;1.17;;;;;;;;;;6235658;23;20507;-57
2023/02/19 11:04:54;;;;;;;;;;;;;;;;;;6235178;23;20024;-57
2023/02/19 11:07:27;;;;;;;4.30;0.98;;;;;;;;;;6235671;23;19939;-57
2023/02/19 11:09:55;;;;;;;3.17;1.10;;;;;;;;;;6235162;23;20491;-57
2023/02/19 11:12:32;;;;;;;2.70;1.00;;;;;;;;;;6236858;23;20024;-57
2023/02/19 11:15:21;;;;;;;9.40;1.60;;;;;;;;;;6236660;23;20109;-57
2023/02/19 11:17:55;;;;;;;4.15;1.10;;;;;;;;;;6234759;23;20055;-60
2023/02/19 11:20:30;;;;;;;3.95;1.20;;;;;;;;;;6234816;23;20028;-60
2023/02/19 11:23:00;;;;;;;4.25;1.05;;;;;;;;;;6234971;23;20082;-60
2023/02/19 11:25:27;;;;;;;6.00;0.98;;;;;;;;;;6233950;23;20103;-60
2023/02/19 11:28:06;;;;;;;5.57;1.02;;;;;;;;;;6234113;23;20099;-74
2023/02/19 11:30:47;;;;;;;2.15;0.85;;;;;;;;;;6234057;23;20495;-59
2023/02/19 11:33:28;;;;;;;4.35;1.10;;;;;;;;;;6235710;23;20020;-60
2023/02/19 11:36:14;;;;;;;5.03;1.20;;;;;;;;;;6235513;23;20079;-60
2023/02/19 11:38:48;;;;;;;3.80;1.23;;;;;;;;;;6235584;23;20020;-59
2023/02/19 11:41:34;;;;;;;5.10;1.40;;;;;;;;;;6235368;23;20050;-59
2023/02/19 11:44:24;;;;;;;4.93;1.60;;;;;;;;;;6235305;23;20103;-58
2023/02/19 11:47:19;;;;;;;6.20;1.35;;;;;;;;;;6234802;23;20174;-73
2023/02/19 11:50:15;;;;;;;5.30;1.30;;;;;;;;;;6233740;23;20051;-72
2023/02/19 11:53:09;;;;;;;3.88;1.25;;;;;;;;;;6234977;23;20030;-70
2023/02/19 11:55:46;;;;;;;7.10;1.05;;;;;;;;;;6223257;23;20047;-65
2023/02/19 11:58:32;;;;;;;7.65;1.50;;;;;;;;;;6234915;23;20491;-61
2023/02/19 12:01:09;;;;;;;5.35;1.15;;;;;;;;;;6234331;23;20505;-61
2023/02/19 12:03:46;;;;;;;7.90;1.10;;;;;;;;;;6235353;23;20035;-62
2023/02/19 12:06:25;;;;;;;9.48;1.63;;;;;;;;;;6235069;23;20108;-61
2023/02/19 12:09:02;;;;;;;23.20;2.55;;;;;;;;;;6234727;23;20024;-62
2023/02/19 12:11:29;;;;;;;3.20;1.23;;;;;;;;;;6234862;23;20020;-61
2023/02/19 12:14:19;;;;;;;5.75;1.23;;;;;;;;;;6235052;23;20103;-62
2023/02/19 12:16:49;;;;;;;5.80;1.40;;;;;;;;;;6235168;23;20020;-62
2023/02/19 12:19:51;;;;;;;4.63;1.60;;;;;;;;;;6233720;23;20028;-62
2023/02/19 12:22:26;;;;;;;3.33;1.13;;;;;;;;;;6152583;23;20268;-62
2023/02/19 12:25:03;;;;;;;4.07;1.00;;;;;;;;;;6234166;23;20135;-60
2023/02/19 12:27:37;;;;;;;4.95;0.82;;;;;;;;;;6235596;23;20095;-53
2023/02/19 12:30:27;;;;;;;5.88;1.20;;;;;;;;;;6232417;23;20026;-50
2023/02/19 12:33:01;;;;;;;3.40;0.93;;;;;;;;;;6234661;23;20081;-51
2023/02/19 12:35:49;;;;;;;5.63;1.60;;;;;;;;;;6235475;23;20067;-50
2023/02/19 12:38:36;;;;;;;9.45;2.03;;;;;;;;;;6232652;23;20448;-52
2023/02/19 12:41:13;;;;;;;5.97;2.05;;;;;;;;;;6234506;23;20034;-53
2023/02/19 12:43:56;;;;;;;4.07;1.13;;;;;;;;;;6234468;23;20020;-56
2023/02/19 12:46:35;;;;;;;2.40;1.20;;;;;;;;;;6232364;23;20450;-54
2023/02/19 12:49:15;;;;;;;5.55;0.80;;;;;;;;;;6232270;23;20020;-51
2023/02/19 12:51:43;;;;;;;2.55;0.90;;;;;;;;;;6236402;23;20070;-73
2023/02/19 12:54:16;;;;;;;4.50;1.17;;;;;;;;;;6234294;23;20023;-52
2023/02/19 12:56:53;;;;;;;1.17;0.70;;;;;;;;;;6233638;23;20020;-73
2023/02/19 12:59:47;;;;;;;5.43;1.08;;;;;;;;;;6233818;23;20107;-73
2023/02/19 13:02:18;;;;;;;3.97;1.42;;;;;;;;;;6233877;23;20017;-73
2023/02/19 13:05:00;;;;;;;5.00;1.48;;;;;;;;;;6232893;23;20074;-72
2023/02/19 13:07:32;;;;;;;3.35;1.00;;;;;;;;;;6234098;23;20051;-72
2023/02/19 13:10:19;;;;;;;5.18;0.90;;;;;;;;;;6234620;23;20020;-60
2023/02/19 13:12:48;;;;;;;9.73;2.28;;;;;;;;;;6235636;23;20138;-60
2023/02/19 13:15:33;;;;;;;6.38;1.50;;;;;;;;;;6235166;23;20030;-60
2023/02/19 13:18:01;;;;;;;4.75;1.38;;;;;;;;;;6236011;23;20114;-62
2023/02/19 13:20:37;;;;;;;5.80;1.65;;;;;;;;;;6232234;23;20026;-65
2023/02/19 13:26:09;;;;;;;3.20;1.10;;;;;;;;;;6232112;23;20024;-50
2023/02/19 13:28:58;;;;;;;7.85;1.75;;;;;;;;;;6233786;23;20028;-53
2023/02/19 13:31:42;;;;;;;6.88;1.40;;;;;;;;;;6232497;23;20135;-54
2023/02/19 13:34:09;;;;;;;6.53;1.23;;;;;;;;;;6233424;23;20031;-51
2023/02/19 13:36:43;;;;;;;3.80;1.23;;;;;;;;;;6235027;23;20020;-52
2023/02/19 13:39:13;;;;;;;6.78;1.65;;;;;;;;;;6234100;23;20107;-59
2023/02/19 13:41:58;;;;;;;3.45;1.55;;;;;;;;;;6231506;23;20028;-60
2023/02/19 13:44:29;;;;;;;5.93;1.30;;;;;;;;;;6232061;23;20260;-61
2023/02/19 13:47:05;;;;;;;;;;;;;;;;;;6234607;23;20301;-60
2023/02/19 13:49:35;;;;;;;;;;;;;;;;;;6232266;23;19930;-63
2023/02/19 13:52:28;;;;;;;6.20;1.58;;;;;;;;;;6233755;23;20002;-51
2023/02/19 13:55:14;;;;;;;3.47;1.38;;;;;;;;;;6234371;23;20028;-51
2023/02/19 13:57:47;;;;;;;8.13;1.40;;;;;;;;;;6236607;23;20016;-53
2023/02/19 14:00:33;;;;;;;5.60;1.40;;;;;;;;;;6235745;23;20651;-52
2023/02/19 14:03:27;;;;;;;6.45;1.55;;;;;;;;;;6235869;23;20020;-51
2023/02/19 14:06:01;;;;;;;5.95;2.08;;;;;;;;;;6236916;23;20562;-52
2023/02/19 14:08:46;;;;;;;6.65;1.88;;;;;;;;;;6234914;23;20348;-75
2023/02/19 14:11:14;;;;;;;9.40;1.80;;;;;;;;;;6236145;23;20435;-74
2023/02/19 14:13:51;;;;;;;7.88;2.13;;;;;;;;;;6235499;23;20016;-74
2023/02/19 14:16:27;;;;;;;6.22;2.20;;;;;;;;;;6236038;23;20027;-74
2023/02/19 14:19:01;;;;;;;5.65;1.95;;;;;;;;;;6235572;23;20476;-61
2023/02/19 14:21:36;;;;;;;8.32;2.17;;;;;;;;;;6235275;23;20071;-62
2023/02/19 14:24:11;;;;;;;6.38;1.60;;;;;;;;;;6230271;23;20293;-62
2023/02/19 14:26:39;;;;;;;7.13;1.23;;;;;;;;;;6231819;23;20103;-62
2023/02/19 14:29:11;;;;;;;4.13;1.45;;;;;;;;;;6232720;23;20047;-62
2023/02/19 14:31:51;;;;;;;8.82;1.58;;;;;;;;;;6231164;23;20126;-62
2023/02/19 14:34:25;;;;;;;3.95;1.02;;;;;;;;;;6232081;23;20024;-61
2023/02/19 14:37:01;;;;;;;5.65;1.20;;;;;;;;;;6234992;23;20481;-60
2023/02/19 14:39:32;;;;;;;3.22;0.90;;;;;;;;;;6229630;23;20046;-59
2023/02/19 14:42:11;;;;;;;5.10;1.30;;;;;;;;;;6232634;23;20093;-62
2023/02/19 14:44:56;;;;;;;8.00;1.30;;;;;;;;;;6231757;23;20024;-62
2023/02/19 14:47:33;;;;;;;11.43;1.50;;;;;;;;;;6230925;23;20047;-61
2023/02/19 14:50:02;;;;;;;5.07;1.00;;;;;;;;;;6231357;23;20032;-60
2023/02/19 14:52:43;;;;;;;8.50;1.35;;;;;;;;;;6229688;23;20028;-61
2023/02/19 14:55:31;;;;;;;7.80;1.58;;;;;;;;;;6227789;23;20050;-60
2023/02/19 14:58:00;;;;;;;5.13;1.40;;;;;;;;;;6230914;23;20028;-61
2023/02/19 15:00:36;;;;;;;5.00;1.60;;;;;;;;;;6225972;23;20538;-60
2023/02/19 15:03:03;;;;;;;16.42;1.63;;;;;;;;;;6227400;23;20020;-60
2023/02/19 15:05:37;;;;;;;4.72;1.85;;;;;;;;;;6229796;23;20152;-57
2023/02/19 15:08:08;;;;;;;6.07;1.60;;;;;;;;;;6224236;23;20094;-58
2023/02/19 15:10:43;;;;;;;7.53;1.73;;;;;;;;;;6228287;23;20149;-58
2023/02/19 15:13:16;;;;;;;5.47;1.83;;;;;;;;;;6228474;23;20221;-58
2023/02/19 15:15:51;;;;;;;6.82;1.80;;;;;;;;;;6225290;23;20024;-57
2023/02/19 15:18:20;;;;;;;6.63;1.60;;;;;;;;;;6222651;23;20024;-48
2023/02/19 15:20:48;;;;;;;10.27;1.85;;;;;;;;;;6228922;23;20027;-48
2023/02/19 15:23:23;;;;;;;7.38;2.05;;;;;;;;;;6227703;23;20028;-51
2023/02/19 15:25:57;;;;;;;9.05;1.92;;;;;;;;;;6229073;23;20135;-49
2023/02/19 15:28:33;;;;;;;10.68;2.03;;;;;;;;;;6228401;23;20106;-47
2023/02/19 15:31:06;;;;;;;8.45;2.00;;;;;;;;;;6227525;23;20060;-51
2023/02/19 15:33:51;;;;;;;14.15;2.00;;;;;;;;;;6225798;23;20039;-70
2023/02/19 15:36:24;;;;;;;6.00;1.58;;;;;;;;;;6227339;23;20505;-70
2023/02/19 15:38:59;;;;;;;6.45;1.70;;;;;;;;;;6228946;23;20030;-69
2023/02/19 15:41:28;;;;;;;4.45;1.38;;;;;;;;;;6229007;23;20474;-70
2023/02/19 15:44:28;;;;;;;3.38;1.42;;;;;;;;;;6226777;23;20055;-48
2023/02/19 15:46:57;;;;;;;11.77;1.90;;;;;;;;;;6228823;23;20024;-59
2023/02/19 15:49:37;;;;;;;7.72;1.60;;;;;;;;;;6227745;23;20031;-58
2023/02/19 15:52:10;;;;;;;8.52;1.67;;;;;;;;;;6230400;23;20145;-59
2023/02/19 15:54:56;;;;;;;15.52;1.88;;;;;;;;;;6228321;23;20024;-58